Time;durP1;ratioP1;P1;durP2;ratioP2;P2;SDS_P1;SDS_P2;PMS_P1;PMS_P2;Temp;Humidity;BMP_temperature;BMP_pressure;BME280_temperature;BME280_humidity;BME280_pressure;Samples;Min_cycle;Max_cycle;Signal;HPM_P1;HPM_P2
2023/08/02 00:02:04;;;;;;;;;4.33;2.67;;;;;19.01;80.00;99841.31;4996278;28;45457;-77
2023/08/02 00:04:32;;;;;;;;;3.33;3.33;;;;;18.88;80.19;99815.44;4990578;28;45442;-78
2023/08/02 00:07:02;;;;;;;;;3.33;3.33;;;;;18.89;80.29;99835.72;4998606;28;45526;-77
2023/08/02 00:09:29;;;;;;;;;2.33;2.00;;;;;18.85;80.77;99817.28;4999030;28;45491;-75
2023/08/02 00:11:57;;;;;;;;;3.67;2.00;;;;;18.74;80.92;99792.16;5000196;28;45404;-78
2023/08/02 00:14:23;;;;;;;;;3.00;1.00;;;;;18.90;81.25;99813.56;5000889;28;45454;-79
2023/08/02 00:16:50;;;;;;;;;2.00;2.00;;;;;18.89;81.33;99803.88;4999798;28;45638;-76
2023/08/02 00:19:21;;;;;;;;;4.00;2.00;;;;;18.75;81.58;99778.00;4998427;28;45602;-75
2023/08/02 00:21:49;;;;;;;;;4.33;1.00;;;;;18.67;81.93;99780.13;5014136;28;45558;-75
2023/08/02 00:24:17;;;;;;;;;0.67;0.67;;;;;18.69;81.97;99773.81;4998933;28;45458;-76
2023/08/02 00:26:43;;;;;;;;;2.00;1.00;;;;;18.62;82.18;99767.94;4998814;28;46268;-78
2023/08/02 00:29:10;;;;;;;;;1.00;1.00;;;;;18.60;82.19;99756.56;4999142;28;45499;-76
2023/08/02 00:31:38;;;;;;;;;3.67;0.67;;;;;18.44;82.70;99735.19;4998398;28;45335;-75
2023/08/02 00:34:05;;;;;;;;;0.00;0.00;;;;;18.58;83.33;99765.50;4999053;28;45509;-76
2023/08/02 00:36:35;;;;;;;;;0.33;0.00;;;;;18.55;84.15;99753.22;4997669;28;45707;-77
2023/08/02 00:39:01;;;;;;;;;0.00;0.00;;;;;18.55;84.27;99755.88;4998261;28;45513;-77
2023/08/02 00:41:28;;;;;;;;;0.33;0.33;;;;;18.58;84.41;99752.22;4998564;28;45458;-76
2023/08/02 00:43:55;;;;;;;;;0.00;0.00;;;;;18.63;83.80;99737.00;4998933;28;45417;-76
2023/08/02 00:46:21;;;;;;;;;0.00;0.00;;;;;18.65;83.98;99740.44;5010489;28;46844;-77
2023/08/02 00:48:47;;;;;;;;;1.33;1.00;;;;;18.66;83.83;99736.84;4988419;28;45475;-78
2023/08/02 00:51:19;;;;;;;;;0.00;0.00;;;;;18.58;84.92;99718.63;4998774;28;45701;-78
2023/08/02 00:53:47;;;;;;;;;0.67;0.67;;;;;18.55;84.79;99704.66;5000080;28;45546;-79
2023/08/02 00:56:16;;;;;;;;;3.00;0.00;;;;;18.57;85.16;99697.50;4998406;28;46772;-78
2023/08/02 00:58:43;;;;;;;;;0.00;0.00;;;;;18.53;85.17;99675.56;4998024;28;45483;-79
2023/08/02 01:01:11;;;;;;;;;0.00;0.00;;;;;18.46;85.52;99668.84;4995337;28;45498;-78
2023/08/02 01:03:41;;;;;;;;;0.00;0.00;;;;;18.42;85.24;99651.38;5001773;28;45568;-79
2023/08/02 01:06:57;;;;;;;;;0.00;0.00;;;;;18.47;85.96;99667.91;4998489;28;46610;-79
2023/08/02 01:09:35;;;;;;;;;4.33;0.00;;;;;18.41;86.11;99652.28;4985897;28;45455;-77
2023/08/02 01:12:11;;;;;;;;;1.00;0.00;;;;;18.44;86.18;99652.16;4992220;28;46247;-78
2023/08/02 01:14:49;;;;;;;;;0.67;0.00;;;;;18.48;86.12;99642.25;4994015;28;45325;-79
2023/08/02 01:17:20;;;;;;;;;0.00;0.00;;;;;18.40;87.48;99637.31;4999211;28;45601;-79
2023/08/02 01:19:47;;;;;;;;;0.00;0.00;;;;;18.10;87.42;99594.56;5013438;28;45645;-79
2023/08/02 01:22:14;;;;;;;;;0.00;0.00;;;;;18.19;87.62;99596.78;4998541;28;45349;-73
2023/08/02 01:24:41;;;;;;;;;0.00;0.00;;;;;18.22;87.70;99609.88;4998918;28;45327;-78
2023/08/02 01:27:23;;;;;;;;;0.00;0.00;;;;;18.25;87.92;99596.50;5002771;28;45366;-77
2023/08/02 01:29:52;;;;;;;;;0.33;0.00;;;;;18.20;87.80;99570.22;4998408;28;45411;-76
2023/08/02 01:32:23;;;;;;;;;0.67;0.00;;;;;18.35;87.36;99586.31;4998476;28;45523;-78
2023/08/02 01:34:52;;;;;;;;;0.67;0.00;;;;;18.36;88.01;99572.13;5003859;28;45566;-77
2023/08/02 01:37:18;;;;;;;;;0.00;0.00;;;;;18.16;88.07;99541.28;4994719;28;45961;-79
2023/08/02 01:39:45;;;;;;;;;0.00;0.00;;;;;18.11;88.32;99525.59;4998442;28;45506;-76
2023/08/02 01:42:17;;;;;;;;;0.00;0.00;;;;;18.29;88.16;99563.59;4996416;28;45593;-78
2023/08/02 01:44:43;;;;;;;;;0.00;0.00;;;;;18.18;88.80;99539.44;4997867;28;45547;-79
2023/08/02 01:47:10;;;;;;;;;0.00;0.00;;;;;18.28;89.03;99550.44;4993294;28;45411;-77
2023/08/02 01:49:36;;;;;;;;;0.00;0.00;;;;;18.14;89.14;99516.66;4988034;28;45494;-72
2023/08/02 01:52:04;;;;;;;;;0.00;0.00;;;;;18.23;89.16;99537.41;4996349;28;45389;-77
2023/08/02 01:54:36;;;;;;;;;0.00;0.00;;;;;18.27;88.90;99544.28;4998707;28;45380;-72
2023/08/02 01:57:05;;;;;;;;;0.00;0.00;;;;;18.13;89.50;99520.25;5000849;28;46195;-69
2023/08/02 01:59:31;;;;;;;;;0.00;0.00;;;;;18.12;90.00;99518.50;5000794;28;45633;-71
2023/08/02 02:01:57;;;;;;;;;0.00;0.00;;;;;18.24;90.14;99539.13;5000874;28;45356;-69
2023/08/02 02:04:23;;;;;;;;;0.00;0.00;;;;;18.12;90.21;99519.38;5001850;28;45512;-77
2023/08/02 02:07:20;;;;;;;;;0.00;0.00;;;;;18.15;90.26;99503.34;5000633;28;45415;-77
2023/08/02 02:09:48;;;;;;;;;0.00;0.00;;;;;18.03;90.39;99469.47;5001812;28;45430;-74
2023/08/02 02:12:20;;;;;;;;;0.00;0.00;;;;;18.19;90.63;99518.13;5004345;28;45268;-79
2023/08/02 02:14:47;;;;;;;;;0.00;0.00;;;;;17.92;90.41;99455.91;5012969;28;45485;-77
2023/08/02 02:17:13;;;;;;;;;0.00;0.00;;;;;18.31;90.53;99513.16;5011234;28;45384;-77
2023/08/02 02:19:41;;;;;;;;;0.67;0.00;;;;;18.23;90.43;99500.31;5011334;28;45355;-78
2023/08/02 02:22:07;;;;;;;;;0.00;0.00;;;;;18.19;90.90;99477.53;5008770;28;44860;-74
2023/08/02 02:24:35;;;;;;;;;0.00;0.00;;;;;18.30;91.31;99491.13;4995533;28;45554;-78
2023/08/02 02:27:08;;;;;;;;;0.67;0.67;;;;;18.22;91.00;99469.41;5001356;28;45949;-76
2023/08/02 02:29:36;;;;;;;;;0.67;0.67;;;;;18.18;91.41;99450.19;5003473;28;45570;-78
2023/08/02 02:32:05;;;;;;;;;1.00;0.00;;;;;18.39;91.09;99474.75;5001120;28;45628;-77
2023/08/02 02:34:32;;;;;;;;;1.00;0.00;;;;;18.28;91.73;99455.03;5000946;28;45270;-79
2023/08/02 02:36:59;;;;;;;;;0.33;0.33;;;;;18.38;91.63;99465.06;4999418;28;46085;-78
2023/08/02 02:39:25;;;;;;;;;1.00;1.00;;;;;18.34;91.55;99444.97;5004608;28;45525;-78
2023/08/02 02:41:55;;;;;;;;;2.00;1.00;;;;;18.30;92.13;99418.69;5009558;28;45375;-76
2023/08/02 02:44:50;;;;;;;;;1.00;0.00;;;;;18.43;92.11;99427.72;5015271;28;45241;-78
2023/08/02 02:47:17;;;;;;;;;0.00;0.00;;;;;18.41;92.45;99424.28;5001365;28;45479;-79
2023/08/02 02:49:54;;;;;;;;;0.67;0.67;;;;;18.41;93.11;99413.69;5005366;28;45399;-74
2023/08/02 02:52:33;;;;;;;;;0.67;0.67;;;;;18.43;94.57;99406.50;5005612;28;45418;-78
2023/08/02 02:55:18;;;;;;;;;2.00;1.00;;;;;18.38;95.34;99398.81;5001551;28;45423;-75
2023/08/02 02:57:45;;;;;;;;;2.00;1.00;;;;;18.46;93.44;99401.06;5003959;28;45400;-76
2023/08/02 03:00:13;;;;;;;;;1.00;1.00;;;;;18.21;94.09;99351.13;5000651;28;45318;-77
2023/08/02 03:02:41;;;;;;;;;1.00;1.00;;;;;18.43;94.89;99391.47;5000500;28;45533;-78
2023/08/02 03:05:11;;;;;;;;;1.00;1.00;;;;;18.30;94.57;99348.00;5001460;28;45452;-78
2023/08/02 03:07:39;;;;;;;;;0.00;0.00;;;;;18.23;95.05;99328.91;4999351;28;46434;-77
2023/08/02 03:10:06;;;;;;;;;1.00;0.67;;;;;18.42;94.80;99343.84;5004933;28;45446;-78
2023/08/02 03:12:36;;;;;;;;;0.00;0.00;;;;;18.46;94.91;99345.41;5003007;28;45445;-76
2023/08/02 03:15:06;;;;;;;;;1.33;1.00;;;;;18.52;94.65;99334.47;5003743;28;45737;-74
2023/08/02 03:17:32;;;;;;;;;1.00;0.00;;;;;18.47;94.00;99310.00;4987432;28;46002;-76
2023/08/02 03:19:59;;;;;;;;;2.00;2.00;;;;;18.73;93.81;99339.56;5002531;28;45450;-75
2023/08/02 03:22:26;;;;;;;;;1.67;0.00;;;;;18.88;93.34;99333.44;5000128;28;45376;-74
2023/08/02 03:24:57;;;;;;;;;0.00;0.00;;;;;18.75;93.40;99306.72;5001957;28;45478;-77
2023/08/02 03:27:25;;;;;;;;;0.00;0.00;;;;;19.00;92.97;99337.22;5000098;28;47824;-74
2023/08/02 03:29:53;;;;;;;;;0.33;0.00;;;;;18.88;92.51;99304.25;4999411;28;45394;-73
2023/08/02 03:32:21;;;;;;;;;0.33;0.00;;;;;19.04;92.81;99317.56;5000392;28;45432;-73
2023/08/02 03:34:48;;;;;;;;;0.00;0.00;;;;;19.16;92.53;99321.31;5001273;28;45433;-70
2023/08/02 03:37:15;;;;;;;;;0.33;0.00;;;;;19.22;91.98;99320.97;5001742;28;45406;-75
2023/08/02 03:39:41;;;;;;;;;0.00;0.00;;;;;19.22;92.17;99318.31;4999874;28;45345;-68
2023/08/02 03:42:08;;;;;;;;;1.00;0.00;;;;;19.26;92.14;99309.22;4995603;28;45959;-69
2023/08/02 03:44:35;;;;;;;;;2.00;0.00;;;;;19.23;91.70;99301.44;5000813;28;45617;-68
2023/08/02 03:47:02;;;;;;;;;0.00;0.00;;;;;19.10;92.02;99264.16;4993886;28;46455;-75
2023/08/02 03:49:28;;;;;;;;;0.00;0.00;;;;;19.30;92.29;99313.44;5001552;28;45716;-77
2023/08/02 03:51:56;;;;;;;;;0.00;0.00;;;;;19.24;92.69;99300.50;4997445;28;45474;-76
2023/08/02 03:54:24;;;;;;;;;0.67;0.00;;;;;19.19;92.82;99282.19;4999510;28;45391;-76
2023/08/02 03:56:50;;;;;;;;;0.00;0.00;;;;;19.08;92.69;99260.72;5000332;28;46213;-77
2023/08/02 03:59:20;;;;;;;;;0.67;0.00;;;;;19.30;93.01;99292.19;4998763;28;45590;-76
2023/08/02 04:01:48;;;;;;;;;0.00;0.00;;;;;19.14;93.51;99254.19;5000317;28;45453;-76
2023/08/02 04:04:18;;;;;;;;;1.00;0.00;;;;;19.35;93.73;99289.28;5000287;28;45532;-77
2023/08/02 04:06:46;;;;;;;;;0.00;0.00;;;;;19.11;93.62;99247.28;5001345;28;45394;-78
2023/08/02 04:09:15;;;;;;;;;1.00;0.00;;;;;19.25;93.96;99270.38;5000634;28;45380;-75
2023/08/02 04:11:43;;;;;;;;;0.00;0.00;;;;;19.26;94.23;99270.25;4987973;28;45277;-76
2023/08/02 04:14:10;;;;;;;;;0.00;0.00;;;;;19.22;94.61;99257.25;5001578;28;45273;-77
2023/08/02 04:16:39;;;;;;;;;0.00;0.00;;;;;19.35;94.48;99268.03;4999002;28;46672;-78
2023/08/02 04:19:08;;;;;;;;;1.00;0.00;;;;;19.35;94.11;99260.09;4999893;28;45499;-76
2023/08/02 04:21:36;;;;;;;;;0.00;0.00;;;;;19.43;94.22;99266.66;4998927;28;45349;-77
2023/08/02 04:24:03;;;;;;;;;0.00;0.00;;;;;19.43;94.80;99265.78;4998992;28;45348;-78
2023/08/02 04:26:30;;;;;;;;;0.00;0.00;;;;;19.21;95.21;99239.63;4998551;28;46578;-77
2023/08/02 04:28:57;;;;;;;;;0.00;0.00;;;;;19.28;95.32;99239.19;4998349;28;45534;-78
2023/08/02 04:31:25;;;;;;;;;0.00;0.00;;;;;19.41;94.88;99249.09;5000831;28;45475;-77
2023/08/02 04:33:59;;;;;;;;;0.00;0.00;;;;;19.51;95.28;99258.25;4998786;28;45390;-78
2023/08/02 04:36:27;;;;;;;;;0.00;0.00;;;;;19.42;94.78;99235.72;4990851;28;46585;-76
2023/08/02 04:38:55;;;;;;;;;0.00;0.00;;;;;19.56;95.24;99252.66;4989707;28;45628;-76
2023/08/02 04:41:22;;;;;;;;;0.00;0.00;;;;;19.57;95.49;99262.34;4998832;28;45675;-78
2023/08/02 04:43:49;;;;;;;;;1.00;0.00;;;;;19.43;95.42;99226.84;4997771;28;45574;-76
2023/08/02 04:46:22;;;;;;;;;0.00;0.00;;;;;19.58;95.46;99246.31;4996333;28;45912;-73
2023/08/02 04:48:50;;;;;;;;;0.00;0.00;;;;;19.58;95.51;99246.31;4994694;28;45409;-77
2023/08/02 04:51:17;;;;;;;;;1.00;0.00;;;;;19.34;95.54;99199.94;5001640;28;45543;-76
2023/08/02 04:53:48;;;;;;;;;0.00;0.00;;;;;19.39;95.30;99204.06;5009027;28;45435;-72
2023/08/02 04:56:17;;;;;;;;;0.00;0.00;;;;;19.70;95.43;99234.16;5000171;28;45544;-68
2023/08/02 04:58:46;;;;;;;;;0.00;0.00;;;;;19.62;95.89;99218.66;4998953;28;45495;-76
2023/08/02 05:01:13;;;;;;;;;1.00;0.00;;;;;19.56;95.84;99215.50;4989904;28;45604;-75
2023/08/02 05:03:39;;;;;;;;;0.00;0.00;;;;;19.69;96.63;99235.06;4998643;28;45401;-77
2023/08/02 05:06:06;;;;;;;;;0.00;0.00;;;;;19.73;96.17;99225.16;4997904;28;46507;-77
2023/08/02 05:08:36;;;;;;;;;0.00;0.00;;;;;19.66;95.48;99208.69;4996906;28;45410;-74
2023/08/02 05:11:07;;;;;;;;;0.00;0.00;;;;;19.80;95.81;99227.34;4997766;28;45569;-70
2023/08/02 05:13:35;;;;;;;;;0.00;0.00;;;;;19.83;96.16;99215.66;4998005;28;45471;-76
2023/08/02 05:16:11;;;;;;;;;0.00;0.00;;;;;19.81;95.92;99213.13;4999045;28;45478;-75
2023/08/02 05:18:39;;;;;;;;;0.00;0.00;;;;;19.73;96.13;99203.91;4997176;28;45682;-75
2023/08/02 05:21:15;;;;;;;;;0.00;0.00;;;;;19.61;96.66;99169.13;4997391;28;45389;-75
2023/08/02 05:23:43;;;;;;;;;0.00;0.00;;;;;19.52;97.12;99151.06;4993776;28;45570;-75
2023/08/02 05:26:13;;;;;;;;;0.00;0.00;;;;;18.99;96.55;99043.69;4995563;28;45364;-77
2023/08/02 05:28:42;;;;;;;;;0.00;0.00;;;;;19.81;96.50;99197.19;4996781;28;45457;-74
2023/08/02 05:31:14;;;;;;;;;0.00;0.00;;;;;19.79;96.87;99183.13;4998099;28;45756;-73
2023/08/02 05:33:41;;;;;;;;;0.00;0.00;;;;;19.83;97.12;99181.13;5000309;28;45375;-72
2023/08/02 05:36:11;;;;;;;;;2.33;0.00;;;;;19.80;97.47;99182.16;4990657;28;45631;-71
2023/08/02 05:38:38;;;;;;;;;0.00;0.00;;;;;19.88;96.88;99187.00;4987612;28;45518;-68
2023/08/02 05:41:08;;;;;;;;;0.00;0.00;;;;;19.82;96.63;99161.69;4999272;28;45623;-68
2023/08/02 05:43:36;;;;;;;;;0.00;0.00;;;;;19.80;96.70;99152.94;4996710;28;45446;-76
2023/08/02 05:46:06;;;;;;;;;0.00;0.00;;;;;20.01;96.08;99182.66;5000384;28;46697;-76
2023/08/02 05:48:33;;;;;;;;;0.00;0.00;;;;;19.82;96.43;99151.06;4999842;28;45272;-76
2023/08/02 05:51:01;;;;;;;;;0.00;0.00;;;;;19.52;96.39;99092.66;4998133;28;45526;-74
2023/08/02 05:53:27;;;;;;;;;2.00;0.00;;;;;19.64;95.85;99110.50;5012885;28;45606;-76
2023/08/02 05:55:55;;;;;;;;;0.00;0.00;;;;;20.06;96.74;99175.25;4995699;28;45524;-77
2023/08/02 05:58:22;;;;;;;;;0.00;0.00;;;;;19.74;96.41;99109.97;4996975;28;45453;-77
2023/08/02 06:00:48;;;;;;;;;0.00;0.00;;;;;20.08;96.99;99169.84;4997947;28;45962;-77
2023/08/02 06:03:14;;;;;;;;;0.00;0.00;;;;;20.01;96.52;99160.56;4997381;28;45511;-76
2023/08/02 06:05:40;;;;;;;;;0.00;0.00;;;;;19.97;96.63;99135.13;4988675;28;45543;-76
2023/08/02 06:08:09;;;;;;;;;1.00;1.00;;;;;19.66;95.98;99076.72;4986154;28;45470;-77
2023/08/02 06:10:34;;;;;;;;;0.00;0.00;;;;;19.92;95.70;99114.16;4993445;28;45443;-74
2023/08/02 06:13:00;;;;;;;;;0.00;0.00;;;;;19.89;95.27;99099.25;4995666;28;45618;-69
2023/08/02 06:15:28;;;;;;;;;1.67;1.00;;;;;20.28;95.32;99156.16;4993344;28;45638;-67
2023/08/02 06:17:56;;;;;;;;;0.00;0.00;;;;;20.25;94.65;99131.56;4993239;28;45423;-68
2023/08/02 06:20:24;;;;;;;;;0.00;0.00;;;;;20.30;95.40;99138.31;4992196;28;45580;-70
2023/08/02 06:22:55;;;;;;;;;0.00;0.00;;;;;20.25;94.82;99119.13;4989770;28;46433;-67
2023/08/02 06:25:23;;;;;;;;;1.33;1.00;;;;;20.42;94.81;99143.78;4990498;28;45518;-71
2023/08/02 06:27:51;;;;;;;;;1.00;0.67;;;;;20.41;94.61;99113.69;4992861;28;45557;-69
2023/08/02 06:30:18;;;;;;;;;0.00;0.00;;;;;20.25;95.41;99116.47;4991180;28;45308;-66
2023/08/02 06:32:46;;;;;;;;;1.00;0.00;;;;;20.38;94.96;99100.56;4992242;28;45949;-68
2023/08/02 06:35:25;;;;;;;;;0.00;0.00;;;;;19.94;95.03;99039.66;4994345;28;46558;-67
2023/08/02 06:37:53;;;;;;;;;0.00;0.00;;;;;20.46;94.79;99119.56;4989340;28;45799;-67
2023/08/02 06:40:19;;;;;;;;;0.33;0.33;;;;;20.31;95.01;99092.16;4996475;28;45800;-65
2023/08/02 06:42:49;;;;;;;;;0.67;0.67;;;;;20.53;94.72;99128.84;4997285;28;45605;-69
2023/08/02 06:45:15;;;;;;;;;3.00;0.00;;;;;20.07;94.16;99046.75;5007961;28;45434;-66
2023/08/02 06:47:42;;;;;;;;;0.00;0.00;;;;;20.18;93.62;99034.56;4997633;28;45447;-70
2023/08/02 06:50:20;;;;;;;;;0.00;0.00;;;;;20.71;93.80;99129.47;4997321;28;45403;-65
2023/08/02 06:52:49;;;;;;;;;2.00;0.00;;;;;20.36;92.99;99057.31;5009638;28;45527;-71
2023/08/02 06:55:25;;;;;;;;;0.00;0.00;;;;;20.59;92.21;99074.44;4996597;28;46007;-69
2023/08/02 06:57:51;;;;;;;;;0.00;0.00;;;;;20.66;91.93;99088.19;4996990;28;45359;-66
2023/08/02 07:00:17;;;;;;;;;0.00;0.00;;;;;20.33;93.64;99045.06;4995740;28;45393;-67
2023/08/02 07:02:54;;;;;;;;;0.00;0.00;;;;;20.43;93.85;99074.56;4998196;28;45493;-69
2023/08/02 07:05:23;;;;;;;;;1.00;0.00;;;;;20.61;93.63;99096.47;4993792;28;45554;-73
2023/08/02 07:07:52;;;;;;;;;0.00;0.00;;;;;20.23;93.22;99038.63;4994443;28;45353;-75
2023/08/02 07:10:28;;;;;;;;;0.00;0.00;;;;;20.74;92.83;99105.34;4997241;28;45709;-71
2023/08/02 07:12:59;;;;;;;;;1.00;1.00;;;;;20.59;91.40;99071.78;5006521;28;45660;-71
2023/08/02 07:15:30;;;;;;;;;0.75;0.25;;;;;20.71;90.75;99070.09;4995040;28;45474;-70
2023/08/02 07:18:09;;;;;;;;;0.00;0.00;;;;;20.78;90.07;99075.88;4996172;28;45450;-73
2023/08/02 07:20:38;;;;;;;;;0.25;0.25;;;;;20.73;89.37;99062.88;4995060;28;45541;-74
2023/08/02 07:23:08;;;;;;;;;2.00;0.00;;;;;20.78;88.41;99046.63;4995812;28;45498;-78
2023/08/02 07:25:35;;;;;;;;;0.00;0.00;;;;;20.84;87.51;99032.91;4994864;28;45493;-75
2023/08/02 07:28:01;;;;;;;;;2.00;0.00;;;;;21.12;86.71;99063.84;4996058;28;45462;-74
2023/08/02 07:30:27;;;;;;;;;0.00;0.00;;;;;21.26;86.96;99063.75;4996628;28;46066;-69
2023/08/02 07:32:54;;;;;;;;;0.00;0.00;;;;;21.45;86.17;99054.50;4997033;28;45523;-74
2023/08/02 07:35:21;;;;;;;;;0.00;0.00;;;;;21.69;85.19;99078.56;4994851;28;46667;-68
2023/08/02 07:37:49;;;;;;;;;0.50;0.00;;;;;21.72;84.03;99038.38;4994024;28;45526;-68
2023/08/02 07:40:16;;;;;;;;;0.00;0.00;;;;;21.99;83.87;99071.03;4993352;28;45481;-67
2023/08/02 07:42:46;;;;;;;;;1.00;0.00;;;;;22.00;82.63;99050.59;4994895;28;45511;-67
2023/08/02 07:45:12;;;;;;;;;0.00;0.00;;;;;22.26;81.77;99062.06;4994970;28;45419;-77
2023/08/02 07:47:38;;;;;;;;;0.00;0.00;;;;;22.33;80.88;99060.66;4994778;28;46146;-78
2023/08/02 07:50:09;;;;;;;;;2.50;2.00;;;;;22.33;81.17;99062.44;4994831;28;45562;-77
2023/08/02 07:52:35;;;;;;;;;7.67;5.67;;;;;22.13;79.98;99047.88;4994489;28;45469;-77
2023/08/02 07:55:00;;;;;;;;;1.00;0.25;;;;;22.21;79.57;99064.22;4991074;28;46602;-74
2023/08/02 07:57:30;;;;;;;;;2.50;0.00;;;;;22.38;78.84;99063.84;4994403;28;45402;-77
2023/08/02 07:59:58;;;;;;;;;0.00;0.00;;;;;22.19;78.88;99029.63;4995251;28;45748;-76
2023/08/02 08:02:25;;;;;;;;;0.00;0.00;;;;;22.43;78.00;99067.00;4993781;28;45974;-75
2023/08/02 08:04:51;;;;;;;;;0.00;0.00;;;;;22.40;78.31;99075.25;4994441;28;46288;-76
2023/08/02 08:07:18;;;;;;;;;0.00;0.00;;;;;22.22;78.72;99033.91;4985536;28;45515;-76
2023/08/02 08:09:43;;;;;;;;;0.00;0.00;;;;;22.40;77.64;99043.22;4993276;28;45554;-76
2023/08/02 08:12:09;;;;;;;;;0.25;0.25;;;;;22.25;77.51;99028.34;5004521;28;45576;-76
2023/08/02 08:14:35;;;;;;;;;0.00;0.00;;;;;22.41;77.54;99044.94;4987693;28;46063;-75
2023/08/02 08:17:01;;;;;;;;;0.00;0.00;;;;;22.50;77.98;99058.56;4992657;28;46635;-77
2023/08/02 08:19:27;;;;;;;;;0.00;0.00;;;;;22.53;77.90;99064.50;4986007;28;45510;-77
2023/08/02 08:21:54;;;;;;;;;1.00;0.00;;;;;22.42;77.70;99041.31;4990523;28;45458;-76
2023/08/02 08:24:20;;;;;;;;;0.00;0.00;;;;;22.79;77.19;99070.56;4992282;28;46153;-72
2023/08/02 08:26:46;;;;;;;;;0.00;0.00;;;;;22.78;76.18;99031.50;4989136;28;45387;-76
2023/08/02 08:29:12;;;;;;;;;0.00;0.00;;;;;22.93;75.35;99040.16;4997942;28;46013;-76
2023/08/02 08:31:38;;;;;;;;;1.00;0.00;;;;;23.03;74.63;99040.34;4988142;28;45651;-77
2023/08/02 08:34:03;;;;;;;;;1.00;0.00;;;;;23.08;75.09;99049.69;4997880;28;45466;-75
2023/08/02 08:36:29;;;;;;;;;0.00;0.00;;;;;23.19;74.99;99056.06;4995824;28;45352;-74
2023/08/02 08:38:59;;;;;;;;;1.25;0.00;;;;;23.23;74.66;99031.66;5009938;28;45482;-71
2023/08/02 08:41:24;;;;;;;;;0.50;0.00;;;;;23.42;73.59;99048.91;4993473;28;45974;-76
2023/08/02 08:43:50;;;;;;;;;0.00;0.00;;;;;23.44;73.39;99036.28;4996948;28;46134;-78
2023/08/02 08:46:17;;;;;;;;;0.00;0.00;;;;;23.49;72.80;99024.28;4998206;28;45581;-77
2023/08/02 08:48:43;;;;;;;;;0.00;0.00;;;;;23.64;71.37;99022.22;4987676;28;45607;-73
2023/08/02 08:51:10;;;;;;;;;0.00;0.00;;;;;23.69;71.07;99025.38;5004082;28;45287;-71
2023/08/02 08:53:39;;;;;;;;;1.25;0.00;;;;;23.71;70.69;99027.94;5005807;28;45494;-78
2023/08/02 08:56:04;;;;;;;;;1.00;0.00;;;;;23.63;70.13;99007.16;4999151;28;45496;-78
2023/08/02 08:58:38;;;;;;;;;0.00;0.00;;;;;23.73;69.21;99019.75;4999224;28;45391;-77
2023/08/02 09:01:05;;;;;;;;;1.00;1.00;;;;;23.78;69.10;99013.13;4997755;28;45519;-75
2023/08/02 09:03:30;;;;;;;;;0.00;0.00;;;;;23.84;68.54;99003.75;4994444;28;47665;-73
2023/08/02 09:06:00;;;;;;;;;0.00;0.00;;;;;23.89;67.76;98990.88;4995460;28;46547;-71
2023/08/02 09:08:26;;;;;;;;;0.00;0.00;;;;;23.98;67.51;99016.84;4995878;28;45435;-74
2023/08/02 09:10:53;;;;;;;;;0.00;0.00;;;;;24.09;66.91;98999.97;4997532;28;45306;-67
2023/08/02 09:13:25;;;;;;;;;0.00;0.00;;;;;24.18;66.41;98999.22;4995887;28;46708;-67
2023/08/02 09:16:10;;;;;;;;;0.00;0.00;;;;;24.30;65.79;99002.69;4994454;28;45358;-66
2023/08/02 09:18:45;;;;;;;;;0.00;0.00;;;;;24.35;65.16;99008.50;4994717;28;45513;-72
2023/08/02 09:21:14;;;;;;;;;0.00;0.00;;;;;24.44;64.04;98999.72;4996729;28;45283;-71
2023/08/02 09:23:55;;;;;;;;;0.00;0.00;;;;;24.47;63.89;99001.34;4996238;28;46270;-69
2023/08/02 09:26:22;;;;;;;;;0.00;0.00;;;;;24.38;63.48;98980.66;4996547;28;45469;-76
2023/08/02 09:29:01;;;;;;;;;0.00;0.00;;;;;24.19;63.59;98944.72;4994277;28;45543;-70
2023/08/02 09:31:29;;;;;;;;;2.00;0.00;;;;;24.49;63.27;99008.25;4999586;28;45565;-68
2023/08/02 09:33:55;;;;;;;;;0.00;0.00;;;;;24.38;63.81;99005.56;4992311;28;46112;-71
2023/08/02 09:36:29;;;;;;;;;0.00;0.00;;;;;24.35;65.17;99000.50;4990502;28;45436;-74
2023/08/02 09:39:15;;;;;;;;;0.00;0.00;;;;;24.33;63.79;99011.31;4991287;28;45523;-72
2023/08/02 09:41:41;;;;;;;;;0.25;0.25;;;;;24.33;63.14;99005.97;4992830;28;45466;-72
2023/08/02 09:44:08;;;;;;;;;1.00;0.00;;;;;24.26;62.01;98966.47;4990305;28;46300;-70
2023/08/02 09:46:36;;;;;;;;;0.00;0.00;;;;;24.37;60.62;98985.16;4984702;28;45531;-71
2023/08/02 09:50:01;;;;;;;;;;;;;;;;;;;;;
2023/08/02 09:52:27;;;;;;;;;0.00;0.00;;;;;23.67;58.28;98874.13;4992849;28;65447;-73
2023/08/02 09:54:53;;;;;;;;;0.00;0.00;;;;;24.34;58.04;98991.63;4992664;28;45482;-70
2023/08/02 09:57:26;;;;;;;;;0.00;0.00;;;;;24.36;57.35;98980.78;4994496;28;46061;-72
2023/08/02 09:59:57;;;;;;;;;0.00;0.00;;;;;24.36;55.99;98963.88;4986402;28;45469;-76
2023/08/02 10:02:25;;;;;;;;;0.00;0.00;;;;;24.33;55.61;98973.84;4989007;28;45432;-74
2023/08/02 10:04:56;;;;;;;;;0.25;0.25;;;;;24.58;55.32;98997.75;4986815;28;46181;-76
2023/08/02 10:07:30;;;;;;;;;0.40;0.40;;;;;24.56;56.16;98995.22;4989834;28;45490;-71
2023/08/02 10:10:03;;;;;;;;;0.50;0.00;;;;;24.60;55.97;99011.84;4989845;28;45435;-72
2023/08/02 10:12:29;;;;;;;;;1.75;0.00;;;;;24.32;56.38;98996.25;4994872;28;45524;-71
2023/08/02 10:14:59;;;;;;;;;0.00;0.00;;;;;24.27;55.70;98978.84;4995655;28;46161;-74
2023/08/02 10:17:26;;;;;;;;;1.00;1.00;;;;;24.54;54.48;99042.66;4994034;28;45455;-72
2023/08/02 10:19:53;;;;;;;;;1.00;1.00;;;;;24.59;54.08;99039.59;4995831;28;45443;-75
2023/08/02 10:22:19;;;;;;;;;1.00;1.00;;;;;24.63;52.39;99027.63;4987509;28;45458;-76
2023/08/02 10:24:46;;;;;;;;;0.25;0.00;;;;;24.54;51.90;99002.50;4995583;28;46124;-75
2023/08/02 10:27:13;;;;;;;;;1.00;1.00;;;;;24.54;52.83;99018.56;4997157;28;45534;-75
2023/08/02 10:29:40;;;;;;;;;3.00;1.75;;;;;24.62;51.89;98994.69;4999058;28;45430;-74
2023/08/02 10:32:18;;;;;;;;;1.00;1.00;;;;;24.70;50.74;98991.34;4999465;28;45395;-72
2023/08/02 10:34:49;;;;;;;;;1.50;1.00;;;;;24.90;49.96;98998.56;4998917;28;45414;-71
2023/08/02 10:37:16;;;;;;;;;1.75;0.50;;;;;25.02;50.11;99003.84;4997687;28;45454;-72
2023/08/02 10:39:45;;;;;;;;;2.00;1.00;;;;;25.16;49.86;99003.50;4998407;28;45573;-72
2023/08/02 10:42:14;;;;;;;;;0.25;0.25;;;;;25.06;49.36;98975.84;4998225;28;46372;-77
2023/08/02 10:44:55;;;;;;;;;1.25;0.75;;;;;25.30;49.63;99008.56;4998240;28;45534;-75
2023/08/02 10:47:32;;;;;;;;;1.00;1.00;;;;;25.34;49.83;99020.72;4998153;28;45520;-76
2023/08/02 10:49:59;;;;;;;;;0.00;0.00;;;;;25.21;48.09;99022.75;4996818;28;45233;-74
2023/08/02 10:52:26;;;;;;;;;0.50;0.50;;;;;25.26;48.39;99008.97;4996022;28;45666;-74
2023/08/02 10:55:07;;;;;;;;;0.75;0.75;;;;;25.34;48.10;99011.81;4994532;28;46726;-71
2023/08/02 10:57:33;;;;;;;;;2.00;0.25;;;;;25.43;48.24;99023.56;4996384;28;45406;-71
2023/08/02 10:59:59;;;;;;;;;2.00;0.50;;;;;25.47;48.41;99025.84;4997474;28;45578;-73
2023/08/02 11:02:25;;;;;;;;;6.00;2.50;;;;;25.33;48.97;99012.81;4997647;28;45441;-75
2023/08/02 11:04:51;;;;;;;;;2.00;1.75;;;;;25.28;45.55;99007.84;4996833;28;45775;-74
2023/08/02 11:07:21;;;;;;;;;3.80;1.00;;;;;25.32;44.09;99030.72;4996765;28;45483;-71
2023/08/02 11:09:54;;;;;;;;;2.25;2.25;;;;;25.23;43.16;99036.88;4997312;28;45555;-73
2023/08/02 11:12:21;;;;;;;;;31.67;22.67;;;;;25.21;43.60;99046.84;4999194;28;45245;-74
2023/08/02 11:14:50;;;;;;;;;16.67;11.00;;;;;25.22;42.18;99043.19;4999408;28;46344;-73
2023/08/02 11:17:17;;;;;;;;;6.75;4.00;;;;;25.22;42.54;99035.16;5000209;28;45513;-72
2023/08/02 11:19:51;;;;;;;;;5.75;3.75;;;;;25.21;41.86;99029.94;4998850;28;45458;-72
2023/08/02 11:22:18;;;;;;;;;4.25;4.25;;;;;25.21;42.82;99035.31;4998179;28;45440;-72
2023/08/02 11:24:54;;;;;;;;;12.50;8.50;;;;;25.20;43.73;99025.56;4998376;28;46682;-73
2023/08/02 11:27:24;;;;;;;;;6.75;4.75;;;;;25.32;43.43;99041.44;4998599;28;45443;-72
2023/08/02 11:30:01;;;;;;;;;2.25;1.75;;;;;25.50;42.85;99038.13;4998755;28;45454;-75
2023/08/02 11:32:27;;;;;;;;;6.00;3.50;;;;;25.64;42.97;99023.53;4998577;28;45360;-74
2023/08/02 11:34:54;;;;;;;;;3.00;3.00;;;;;25.78;42.40;99010.59;4997056;28;47683;-71
2023/08/02 11:37:22;;;;;;;;;6.00;2.00;;;;;25.78;42.27;99018.63;4996787;28;45555;-72
2023/08/02 11:39:55;;;;;;;;;2.00;2.00;;;;;26.04;42.02;99060.28;4998571;28;45466;-72
2023/08/02 11:42:22;;;;;;;;;15.00;13.00;;;;;25.99;43.18;99048.09;4998173;28;45693;-70
2023/08/02 11:44:47;;;;;;;;;3.25;3.25;;;;;26.00;41.38;99059.69;4998159;28;46149;-71